Time;durP1;ratioP1;P1;durP2;ratioP2;P2;SDS_P1;SDS_P2;PMS_P1;PMS_P2;Temp;Humidity;BMP_temperature;BMP_pressure;BME280_temperature;BME280_humidity;BME280_pressure;Samples;Min_cycle;Max_cycle;Signal;HPM_P1;HPM_P2
2023/12/17 00:01:43;;;;;;;5.87;2.67;;;;;;;0.56;100.00;146383.38;5022856;28;20258;-57
2023/12/17 00:04:09;;;;;;;7.97;2.70;;;;;;;0.63;100.00;146399.44;5012559;28;20277;-57
2023/12/17 00:06:37;;;;;;;8.17;2.80;;;;;;;0.58;100.00;146388.34;5024505;28;20236;-57
2023/12/17 00:09:04;;;;;;;4.50;2.13;;;;;;;0.58;100.00;146388.34;5022261;28;20231;-57
2023/12/17 00:11:30;;;;;;;5.10;2.37;;;;;;;0.53;100.00;146375.97;5025404;28;20302;-57
2023/12/17 00:13:58;;;;;;;4.57;2.33;;;;;;;0.46;100.00;146359.91;5021500;28;20230;-57
2023/12/17 00:16:26;;;;;;;13.33;2.53;;;;;;;0.48;100.00;146363.59;5024674;28;20235;-57
2023/12/17 00:18:52;;;;;;;8.00;2.60;;;;;;;0.52;100.00;146374.75;5025718;28;20826;-57
2023/12/17 00:21:19;;;;;;;9.93;3.07;;;;;;;0.43;100.00;146352.50;5022917;28;20329;-56
2023/12/17 00:23:46;;;;;;;7.17;2.40;;;;;;;0.37;100.00;146338.88;5012564;28;20240;-56
2023/12/17 00:26:12;;;;;;;5.07;2.43;;;;;;;0.37;100.00;146337.66;5019379;28;20721;-57
2023/12/17 00:28:39;;;;;;;6.63;2.20;;;;;;;0.32;100.00;146325.28;5016161;28;20281;-57
2023/12/17 00:31:07;;;;;;;6.40;2.17;;;;;;;0.30;100.00;146321.56;5021807;28;20231;-58
2023/12/17 00:33:33;;;;;;;4.67;2.20;;;;;;;0.33;100.00;146328.97;5024077;28;20238;-57
2023/12/17 00:36:00;;;;;;;4.13;2.33;;;;;;;0.25;100.00;146310.47;5021012;28;20228;-57
2023/12/17 00:38:26;;;;;;;6.10;2.57;;;;;;;0.23;100.00;146304.25;5024303;28;20231;-57
2023/12/17 00:40:53;;;;;;;4.97;2.10;;;;;;;0.19;100.00;146294.34;5024879;28;20266;-58
2023/12/17 00:43:19;;;;;;;6.03;2.50;;;;;;;0.16;100.00;146286.94;5022886;28;20243;-57
2023/12/17 00:45:46;;;;;;;4.47;2.30;;;;;;;0.16;100.00;146288.19;5022538;28;20233;-58
2023/12/17 00:48:14;;;;;;;9.57;2.63;;;;;;;0.11;100.00;146275.84;5021642;28;20282;-57
2023/12/17 00:50:40;;;;;;;6.97;2.50;;;;;;;0.16;100.00;146286.94;5024622;28;20236;-56
2023/12/17 00:53:07;;;;;;;4.30;2.67;;;;;;;0.08;100.00;146269.63;5020446;28;20772;-57
2023/12/17 00:55:34;;;;;;;5.43;2.63;;;;;;;0.14;100.00;146284.47;5023938;28;20247;-57
2023/12/17 00:58:00;;;;;;;4.80;2.30;;;;;;;0.18;100.00;146291.88;5021673;28;20634;-57
2023/12/17 01:00:27;;;;;;;5.30;2.47;;;;;;;0.09;100.00;146270.88;5024814;28;20238;-57
2023/12/17 01:02:53;;;;;;;5.73;2.30;;;;;;;0.06;100.00;146264.69;5024986;28;20243;-57
2023/12/17 01:05:21;;;;;;;6.77;2.60;;;;;;;0.06;100.00;146263.47;5021869;28;20235;-57
2023/12/17 01:07:48;;;;;;;6.13;2.30;;;;;;;0.15;100.00;146285.72;5024568;28;20290;-57
2023/12/17 01:10:15;;;;;;;7.40;2.63;;;;;;;0.13;100.00;146280.78;5021343;28;20290;-56
2023/12/17 01:12:41;;;;;;;7.37;2.80;;;;;;;0.06;100.00;146264.69;5024406;28;20240;-56
2023/12/17 01:15:08;;;;;;;7.03;2.60;;;;;;;0.07;100.00;146267.16;5021211;28;20223;-57
2023/12/17 01:17:35;;;;;;;5.03;2.37;;;;;;;0.04;100.00;146258.53;5024338;28;20282;-57
2023/12/17 01:20:01;;;;;;;7.20;2.50;;;;;;;0.02;100.00;146254.81;5012478;28;20269;-57
2023/12/17 01:22:30;;;;;;;5.57;2.47;;;;;;;0.18;100.00;146291.88;5022864;28;20806;-57
2023/12/17 01:24:56;;;;;;;10.37;2.40;;;;;;;0.20;100.00;146298.09;5021673;28;20228;-57
2023/12/17 01:27:23;;;;;;;8.47;2.73;;;;;;;0.13;100.00;146280.78;5015319;28;20227;-57
2023/12/17 01:29:49;;;;;;;8.80;2.63;;;;;;;0.15;100.00;146285.72;5016070;28;20571;-57
2023/12/17 01:32:16;;;;;;;5.00;2.47;;;;;;;0.12;100.00;146278.31;5021502;28;20246;-56
2023/12/17 01:34:43;;;;;;;12.23;2.80;;;;;;;0.07;100.00;146265.94;5023268;28;20226;-57
2023/12/17 01:37:08;;;;;;;5.10;2.37;;;;;;;0.03;100.00;146256.06;5020463;28;20277;-57
2023/12/17 01:39:36;;;;;;;9.73;2.83;;;;;;;0.02;100.00;146254.81;5024302;28;20231;-57
2023/12/17 01:42:03;;;;;;;9.33;2.67;;;;;;;0.05;100.00;146262.22;4995682;28;20250;-57
2023/12/17 01:44:32;;;;;;;10.20;3.07;;;;;;;0.11;100.00;146277.06;4897840;28;20722;-58
2023/12/17 01:47:00;;;;;;;7.10;2.70;;;;;;;0.06;100.00;146264.69;4985502;28;20936;-57
2023/12/17 01:49:31;;;;;;;7.20;2.73;;;;;;;0.09;100.00;146270.88;4986916;28;20241;-57
2023/12/17 01:51:59;;;;;;;7.47;2.40;;;;;;;0.07;100.00;146265.94;4943986;28;20319;-57
2023/12/17 01:54:31;;;;;;;5.43;2.70;;;;;;;0.04;100.00;146258.53;4973266;28;20239;-57
2023/12/17 01:57:02;;;;;;;6.43;2.93;;;;;;;0.06;100.00;146263.47;4911397;28;20275;-57
2023/12/17 01:59:31;;;;;;;8.23;3.00;;;;;;;0.10;100.00;146274.56;5026079;28;20239;-57
2023/12/17 02:01:58;;;;;;;9.33;3.63;;;;;;;0.05;100.00;146262.22;4994701;28;20727;-57
2023/12/17 02:04:25;;;;;;;10.03;2.90;;;;;;;0.07;100.00;146265.94;5011646;28;20319;-57
2023/12/17 02:06:52;;;;;;;8.43;2.90;;;;;;;0.17;100.00;146290.69;5037837;28;20226;-57
2023/12/17 02:09:19;;;;;;;7.17;2.60;;;;;;;0.10;100.00;146274.56;5021588;28;20264;-58
2023/12/17 02:11:46;;;;;;;4.23;2.30;;;;;;;0.08;100.00;146269.63;5024419;28;20240;-58
2023/12/17 02:14:14;;;;;;;11.07;2.27;;;;;;;0.04;100.00;146259.75;5020668;28;20216;-58
2023/12/17 02:16:40;;;;;;;5.50;2.27;;;;;;;-0.04;100.00;146240.00;5023774;28;20263;-57
2023/12/17 02:19:07;;;;;;;6.00;2.20;;;;;;;-0.05;100.00;146238.75;5020638;28;20294;-57
2023/12/17 02:21:33;;;;;;;9.30;3.43;;;;;;;-0.06;100.00;146236.28;5023713;28;20705;-58
2023/12/17 02:24:01;;;;;;;9.80;2.90;;;;;;;-0.03;100.00;146242.47;5021156;28;20227;-57
2023/12/17 02:26:28;;;;;;;8.77;2.40;;;;;;;-0.04;100.00;146241.22;5024136;28;20245;-57
2023/12/17 02:28:54;;;;;;;5.00;2.40;;;;;;;0.06;100.00;146264.69;5016195;28;20247;-57
2023/12/17 02:31:21;;;;;;;5.77;2.30;;;;;;;-0.05;100.00;146238.75;5019762;28;20629;-57
2023/12/17 02:33:48;;;;;;;12.27;2.73;;;;;;;-0.08;100.00;146230.13;5023876;28;20239;-57
2023/12/17 02:36:14;;;;;;;14.03;3.87;;;;;;;-0.10;100.00;146226.38;5021234;28;20236;-57
2023/12/17 02:38:41;;;;;;;10.93;3.47;;;;;;;-0.15;100.00;146214.03;5026150;28;20231;-58
2023/12/17 02:41:09;;;;;;;6.50;2.93;;;;;;;-0.16;100.00;146211.56;5024802;28;20245;-58
2023/12/17 02:43:35;;;;;;;9.97;3.23;;;;;;;-0.16;100.00;146212.81;5027879;28;20780;-57
2023/12/17 02:46:02;;;;;;;5.40;2.33;;;;;;;-0.19;100.00;146205.41;5023449;28;20239;-57
2023/12/17 02:48:28;;;;;;;3.97;2.40;;;;;;;-0.21;100.00;146200.44;5027273;28;20239;-57
2023/12/17 02:50:55;;;;;;;8.97;2.70;;;;;;;-0.24;100.00;146191.78;5026132;28;21018;-57
2023/12/17 02:53:21;;;;;;;5.70;2.40;;;;;;;-0.33;100.00;146172.00;5024393;28;20590;-57
2023/12/17 02:55:48;;;;;;;7.20;2.60;;;;;;;-0.36;100.00;146163.38;5027427;28;20235;-57
2023/12/17 02:58:16;;;;;;;6.63;2.40;;;;;;;-0.26;100.00;146188.09;5024041;28;20235;-57
2023/12/17 03:00:43;;;;;;;9.33;2.47;;;;;;;-0.32;100.00;146173.25;5027706;28;20595;-58
2023/12/17 03:03:09;;;;;;;8.50;2.57;;;;;;;-0.33;100.00;146170.78;5023845;28;20748;-53
2023/12/17 03:05:36;;;;;;;5.40;2.40;;;;;;;-0.33;100.00;146172.00;5026514;28;20234;-57
2023/12/17 03:08:03;;;;;;;7.60;2.50;;;;;;;-0.34;100.00;146168.31;5022686;28;20215;-57
2023/12/17 03:10:29;;;;;;;6.37;2.33;;;;;;;-0.36;100.00;146163.38;5017698;28;20825;-56
2023/12/17 03:12:56;;;;;;;5.27;2.33;;;;;;;-0.31;100.00;146176.94;5025676;28;20951;-57
2023/12/17 03:15:24;;;;;;;5.60;2.10;;;;;;;-0.29;100.00;146180.69;5025038;28;20242;-58
2023/12/17 03:17:50;;;;;;;4.00;2.37;;;;;;;-0.30;100.00;146179.41;5024672;28;20230;-57
2023/12/17 03:20:17;;;;;;;7.93;2.13;;;;;;;-0.30;100.00;146178.22;5024079;28;20291;-59
2023/12/17 03:22:44;;;;;;;9.67;2.47;;;;;;;-0.34;100.00;146169.53;5025283;28;20239;-57
2023/12/17 03:25:10;;;;;;;4.93;2.40;;;;;;;-0.34;100.00;146168.31;5023919;28;20231;-57
2023/12/17 03:27:37;;;;;;;6.00;2.20;;;;;;;-0.39;100.00;146155.97;5026887;28;20235;-58
2023/12/17 03:30:04;;;;;;;5.43;2.70;;;;;;;-0.37;100.00;146160.91;5023786;28;20278;-58
2023/12/17 03:32:32;;;;;;;6.03;2.20;;;;;;;-0.41;100.00;146151.00;5019630;28;20765;-57
2023/12/17 03:34:59;;;;;;;10.30;3.53;;;;;;;-0.39;100.00;146157.19;5023479;28;20235;-58
2023/12/17 03:37:25;;;;;;;7.57;2.30;;;;;;;-0.37;100.00;146160.91;5026405;28;20228;-57
2023/12/17 03:39:52;;;;;;;5.13;2.80;;;;;;;-0.40;100.00;146153.50;5024061;28;20239;-58
2023/12/17 03:42:19;;;;;;;3.87;2.43;;;;;;;-0.40;100.00;146153.50;5011501;28;20275;-57
2023/12/17 03:44:46;;;;;;;7.17;2.53;;;;;;;-0.39;100.00;146155.97;5026091;28;20285;-58
2023/12/17 03:47:12;;;;;;;7.00;2.30;;;;;;;-0.41;100.00;146151.00;5014490;28;20284;-58
2023/12/17 03:49:40;;;;;;;6.33;2.37;;;;;;;-0.48;100.00;146136.19;5024253;28;20240;-57
2023/12/17 03:52:07;;;;;;;7.50;2.40;;;;;;;-0.53;100.00;146122.63;5022845;28;20251;-58
2023/12/17 03:54:34;;;;;;;3.97;2.30;;;;;;;-0.49;100.00;146132.47;5024664;28;20275;-57
2023/12/17 03:57:00;;;;;;;4.67;2.13;;;;;;;-0.42;100.00;146148.53;5020619;28;20246;-58
2023/12/17 03:59:28;;;;;;;4.63;2.47;;;;;;;-0.45;100.00;146143.59;5026198;28;20241;-58
2023/12/17 04:01:57;;;;;;;5.80;2.60;;;;;;;-0.42;100.00;146149.75;5025538;28;20231;-58
2023/12/17 04:04:23;;;;;;;5.80;2.40;;;;;;;-0.41;100.00;146152.22;5023369;28;20270;-58
2023/12/17 04:06:51;;;;;;;7.33;2.67;;;;;;;-0.45;100.00;146143.59;5025771;28;20288;-58
2023/12/17 04:09:19;;;;;;;4.47;2.43;;;;;;;-0.49;100.00;146133.72;5023247;28;20234;-57
2023/12/17 04:11:45;;;;;;;3.43;2.07;;;;;;;-0.49;100.00;146132.47;5024634;28;20317;-57
2023/12/17 04:14:12;;;;;;;4.97;2.03;;;;;;;-0.49;100.00;146133.72;5021457;28;20227;-57
2023/12/17 04:16:39;;;;;;;4.33;1.93;;;;;;;-0.45;100.00;146143.59;5025104;28;20789;-57
2023/12/17 04:19:05;;;;;;;3.50;2.30;;;;;;;-0.48;100.00;146136.19;5022710;28;20326;-58
2023/12/17 04:21:32;;;;;;;4.10;2.40;;;;;;;-0.49;100.00;146133.72;5022280;28;20693;-58
2023/12/17 04:24:00;;;;;;;6.53;2.37;;;;;;;-0.47;100.00;146137.41;5022276;28;20219;-58
2023/12/17 04:26:26;;;;;;;6.10;2.20;;;;;;;-0.48;100.00;146136.19;5025972;28;20718;-57
2023/12/17 04:28:53;;;;;;;9.10;2.80;;;;;;;-0.48;100.00;146136.19;5025022;28;20694;-57
2023/12/17 04:31:20;;;;;;;5.43;2.13;;;;;;;-0.47;100.00;146137.41;5230708;23;20237;-54
2023/12/17 04:33:46;;;;;;;8.17;2.50;;;;;;;-0.50;100.00;146130.00;5000824;28;20236;-55
2023/12/17 04:36:13;;;;;;;6.20;2.50;;;;;;;-0.51;100.00;146128.78;5000458;28;20232;-55
2023/12/17 04:38:41;;;;;;;7.17;3.63;;;;;;;-0.48;100.00;146136.19;5006323;28;20236;-56
2023/12/17 04:41:09;;;;;;;4.33;2.70;;;;;;;-0.48;100.00;146134.94;5006034;28;20227;-54
2023/12/17 04:43:36;;;;;;;5.77;2.30;;;;;;;-0.48;100.00;146134.94;5024677;28;20235;-55
2023/12/17 04:46:02;;;;;;;8.03;2.90;;;;;;;-0.40;100.00;146153.50;5021817;28;20227;-55
2023/12/17 04:48:29;;;;;;;8.07;2.47;;;;;;;-0.41;100.00;146151.00;5024315;28;20240;-52
2023/12/17 04:50:55;;;;;;;7.03;2.47;;;;;;;-0.45;100.00;146143.59;5024703;28;20235;-53
2023/12/17 04:53:22;;;;;;;4.47;2.33;;;;;;;-0.45;100.00;146143.59;5022535;28;20694;-53
2023/12/17 04:55:49;;;;;;;12.30;3.10;;;;;;;-0.36;100.00;146163.38;5025286;28;20242;-55
2023/12/17 04:58:16;;;;;;;8.87;2.50;;;;;;;-0.33;100.00;146170.78;5021386;28;20242;-53
2023/12/17 05:00:43;;;;;;;6.57;2.60;;;;;;;-0.35;100.00;146167.06;5024365;28;20650;-54
2023/12/17 05:03:10;;;;;;;10.97;2.50;;;;;;;-0.38;100.00;146159.66;5022013;28;20228;-54
2023/12/17 05:05:37;;;;;;;7.77;2.83;;;;;;;-0.42;100.00;146148.53;5024873;28;20709;-55
2023/12/17 05:08:04;;;;;;;6.07;2.57;;;;;;;-0.46;100.00;146141.13;5022247;28;20621;-55
2023/12/17 05:10:30;;;;;;;8.03;3.93;;;;;;;-0.38;100.00;146158.44;5023108;28;20309;-55
2023/12/17 05:12:57;;;;;;;7.00;3.33;;;;;;;-0.47;100.00;146138.66;5020902;28;20243;-53
2023/12/17 05:15:25;;;;;;;6.47;2.90;;;;;;;-0.50;100.00;146130.00;5021989;28;20285;-53
2023/12/17 05:17:51;;;;;;;6.53;2.87;;;;;;;-0.51;100.00;146127.50;5011806;28;20228;-55
2023/12/17 05:20:18;;;;;;;7.77;2.50;;;;;;;-0.58;100.00;146111.47;5019378;28;20642;-55
2023/12/17 05:22:45;;;;;;;7.93;2.67;;;;;;;-0.57;100.00;146112.72;5024804;28;20235;-53
2023/12/17 05:25:11;;;;;;;8.97;2.77;;;;;;;-0.55;100.00;146117.69;5021425;28;20273;-54
2023/12/17 05:27:38;;;;;;;7.50;2.50;;;;;;;-0.60;100.00;146106.53;5025458;28;20687;-55
2023/12/17 05:30:06;;;;;;;4.43;2.60;;;;;;;-0.65;100.00;146094.19;5022315;28;20230;-55
2023/12/17 05:32:34;;;;;;;5.97;3.03;;;;;;;-0.69;100.00;146084.28;5024824;28;20634;-55
2023/12/17 05:35:00;;;;;;;9.67;3.03;;;;;;;-0.67;100.00;146090.50;5021657;28;20747;-55
2023/12/17 05:37:27;;;;;;;4.87;2.73;;;;;;;-0.64;100.00;146096.66;5004574;28;20231;-55
2023/12/17 05:39:54;;;;;;;7.03;2.60;;;;;;;-0.67;100.00;146089.22;5024067;28;20219;-53
2023/12/17 05:42:20;;;;;;;4.53;2.83;;;;;;;-0.70;100.00;146083.09;5020778;28;20239;-56
2023/12/17 05:44:47;;;;;;;4.63;2.70;;;;;;;-0.70;100.00;146081.81;5023878;28;20239;-56
2023/12/17 05:47:14;;;;;;;5.00;2.90;;;;;;;-0.75;100.00;146070.72;5021197;28;20675;-56
2023/12/17 05:49:42;;;;;;;8.00;3.07;;;;;;;-0.75;100.00;146071.94;5024711;28;20598;-56
2023/12/17 05:52:09;;;;;;;7.77;2.70;;;;;;;-0.69;100.00;146084.28;5017267;28;20243;-56
2023/12/17 05:54:35;;;;;;;7.63;2.50;;;;;;;-0.70;100.00;146081.81;5021727;28;20324;-56
2023/12/17 05:57:02;;;;;;;8.77;2.60;;;;;;;-0.71;100.00;146079.34;5020633;28;20296;-56
2023/12/17 05:59:30;;;;;;;8.07;2.80;;;;;;;-0.73;100.00;146074.41;5021245;28;20244;-53
2023/12/17 06:01:57;;;;;;;5.13;2.53;;;;;;;-0.76;100.00;146068.25;5021276;28;20224;-55
2023/12/17 06:04:23;;;;;;;7.43;2.93;;;;;;;-0.70;100.00;146083.09;5024196;28;20306;-55
2023/12/17 06:06:51;;;;;;;6.10;2.87;;;;;;;-0.75;100.00;146071.94;5023433;28;20226;-54
2023/12/17 06:09:18;;;;;;;6.87;2.50;;;;;;;-0.74;100.00;146073.19;5021916;28;20289;-55
2023/12/17 06:11:44;;;;;;;6.97;2.60;;;;;;;-0.78;100.00;146064.53;5022464;28;20243;-54
2023/12/17 06:14:11;;;;;;;6.07;2.73;;;;;;;-0.80;100.00;146058.38;5024750;28;20242;-55
2023/12/17 06:16:41;;;;;;;7.27;2.93;;;;;;;-0.82;100.00;146053.44;5028616;28;20794;-54
2023/12/17 06:19:08;;;;;;;8.40;3.00;;;;;;;-0.85;100.00;146046.00;5024487;28;20241;-55
2023/12/17 06:21:35;;;;;;;6.57;2.63;;;;;;;-0.87;100.00;146042.28;5028721;28;20231;-56
2023/12/17 06:24:03;;;;;;;7.57;3.70;;;;;;;-0.86;100.00;146044.75;5018981;28;20227;-55
2023/12/17 06:26:31;;;;;;;7.60;2.70;;;;;;;-0.86;100.00;146043.53;5028275;28;20227;-55
2023/12/17 06:28:58;;;;;;;6.93;2.97;;;;;;;-0.80;100.00;146059.59;5024332;28;20232;-55
2023/12/17 06:31:25;;;;;;;7.37;3.27;;;;;;;-0.81;100.00;146057.09;5027803;28;20916;-55
2023/12/17 06:33:53;;;;;;;6.63;2.83;;;;;;;-0.83;100.00;146052.16;5027513;28;20266;-55
2023/12/17 06:36:20;;;;;;;5.77;2.50;;;;;;;-0.78;100.00;146063.31;5025347;28;20601;-55
2023/12/17 06:38:46;;;;;;;3.73;2.20;;;;;;;-0.79;100.00;146060.84;5027377;28;20885;-55
2023/12/17 06:41:15;;;;;;;6.90;2.60;;;;;;;-0.83;100.00;146050.97;5025325;28;20251;-54
2023/12/17 06:43:42;;;;;;;7.40;2.70;;;;;;;-0.83;100.00;146050.97;5027542;28;20223;-55
2023/12/17 06:46:09;;;;;;;12.40;2.57;;;;;;;-0.84;100.00;146048.50;5024226;28;20289;-55
2023/12/17 06:48:36;;;;;;;8.03;2.40;;;;;;;-0.89;100.00;146037.34;5028193;28;20238;-54
2023/12/17 06:51:04;;;;;;;8.03;2.93;;;;;;;-0.84;100.00;146049.69;5024762;28;20237;-55
2023/12/17 06:53:31;;;;;;;9.53;2.80;;;;;;;-0.86;100.00;146043.53;5026340;28;20234;-56
2023/12/17 06:55:57;;;;;;;11.13;2.63;;;;;;;-0.88;100.00;146039.81;5022571;28;20236;-57
2023/12/17 06:58:25;;;;;;;7.40;2.70;;;;;;;-0.86;100.00;146044.75;5027154;28;20710;-54
2023/12/17 07:00:52;;;;;;;9.80;3.30;;;;;;;-0.85;100.00;146047.22;5020835;28;20236;-54
2023/12/17 07:03:19;;;;;;;9.83;2.73;;;;;;;-0.82;100.00;146053.44;5015377;28;20250;-56
2023/12/17 07:05:45;;;;;;;6.77;3.00;;;;;;;-0.81;100.00;146057.09;5019997;28;20232;-56
2023/12/17 07:08:12;;;;;;;3.93;2.40;;;;;;;-0.78;100.00;146063.31;5024910;28;20239;-56
2023/12/17 07:10:39;;;;;;;6.63;2.30;;;;;;;-0.80;100.00;146058.38;5026260;28;20233;-56
2023/12/17 07:13:05;;;;;;;7.00;2.90;;;;;;;-0.82;100.00;146053.44;5024678;28;20229;-55
2023/12/17 07:15:33;;;;;;;4.47;2.70;;;;;;;-0.84;100.00;146048.50;5027277;28;20235;-56
2023/12/17 07:18:00;;;;;;;9.60;3.50;;;;;;;-0.86;100.00;146044.75;5024195;28;20231;-56
2023/12/17 07:20:26;;;;;;;11.97;4.40;;;;;;;-0.86;100.00;146043.53;5027150;28;20269;-55
2023/12/17 07:22:53;;;;;;;8.73;4.20;;;;;;;-0.81;100.00;146057.09;5026422;28;20236;-56
2023/12/17 07:25:20;;;;;;;10.57;5.90;;;;;;;-0.77;100.00;146067.00;5027679;28;20575;-56
2023/12/17 07:27:47;;;;;;;9.13;4.40;;;;;;;-0.73;100.00;146074.41;5025819;28;20227;-55
2023/12/17 07:30:15;;;;;;;6.23;2.77;;;;;;;-0.66;100.00;146091.72;5021758;28;20262;-57
2023/12/17 07:32:43;;;;;;;7.43;2.80;;;;;;;-0.67;100.00;146090.50;5026304;28;20232;-54
2023/12/17 07:35:10;;;;;;;10.13;4.50;;;;;;;-0.68;100.00;146086.75;5023384;28;20227;-56
2023/12/17 07:37:36;;;;;;;7.87;3.30;;;;;;;-0.68;100.00;146088.03;5026422;28;20231;-54
2023/12/17 07:40:03;;;;;;;13.17;6.40;;;;;;;-0.60;100.00;146106.53;5022584;28;20235;-56
2023/12/17 07:42:30;;;;;;;15.20;7.37;;;;;;;-0.59;100.00;146109.00;5026778;28;20293;-56
2023/12/17 07:44:57;;;;;;;14.70;7.43;;;;;;;-0.57;100.00;146113.94;5019282;28;20233;-56
2023/12/17 07:47:23;;;;;;;17.87;9.97;;;;;;;-0.52;100.00;146126.31;5022646;28;20629;-56
2023/12/17 07:49:51;;;;;;;26.73;12.27;;;;;;;-0.50;100.00;146131.25;5014850;28;20235;-56
2023/12/17 07:52:18;;;;;;;21.17;11.50;;;;;;;-0.49;100.00;146133.72;5021869;28;20240;-56
2023/12/17 07:54:44;;;;;;;23.37;13.10;;;;;;;-0.43;100.00;146147.28;5026325;28;20290;-54
2023/12/17 07:57:11;;;;;;;22.83;13.10;;;;;;;-0.47;100.00;146137.41;5022909;28;20231;-56
2023/12/17 07:59:38;;;;;;;19.13;10.03;;;;;;;-0.45;100.00;146142.34;5026348;28;20286;-56
2023/12/17 08:02:04;;;;;;;19.38;10.93;;;;;;;-0.38;100.00;146158.44;5022921;28;20448;-56
2023/12/17 08:04:31;;;;;;;21.47;12.43;;;;;;;-0.38;100.00;146159.66;5025082;28;20231;-56
2023/12/17 08:06:59;;;;;;;15.77;9.17;;;;;;;-0.37;100.00;146160.91;5022111;28;20277;-56
2023/12/17 08:09:26;;;;;;;12.77;6.90;;;;;;;-0.33;100.00;146172.00;5023437;28;20897;-56
2023/12/17 08:11:52;;;;;;;9.47;4.63;;;;;;;-0.26;100.00;146186.84;5025030;28;20238;-56
2023/12/17 08:14:19;;;;;;;9.80;3.80;;;;;;;-0.23;100.00;146195.50;5023490;28;20583;-56
2023/12/17 08:16:46;;;;;;;6.87;4.20;;;;;;;-0.19;100.00;146205.41;5026227;28;20722;-54
2023/12/17 08:19:12;;;;;;;11.13;7.13;;;;;;;-0.13;100.00;146217.75;5022384;28;20305;-56
2023/12/17 08:21:39;;;;;;;7.20;3.17;;;;;;;-0.05;100.00;146237.53;5026317;28;20938;-56
2023/12/17 08:24:07;;;;;;;6.87;3.47;;;;;;;0.01;100.00;146251.13;5014664;28;20243;-56
2023/12/17 08:26:34;;;;;;;4.90;2.70;;;;;;;0.08;100.00;146268.41;5017035;28;20223;-56
2023/12/17 08:29:00;;;;;;;5.93;2.80;;;;;;;0.16;100.00;146286.94;5023158;28;20231;-56
2023/12/17 08:31:27;;;;;;;5.63;2.67;;;;;;;0.25;100.00;146309.19;5025151;28;20250;-54
2023/12/17 08:33:53;;;;;;;6.50;3.13;;;;;;;0.33;100.00;146328.97;5025948;28;20887;-56
2023/12/17 08:36:22;;;;;;;6.97;3.30;;;;;;;0.37;100.00;146338.88;5022292;28;20235;-53
2023/12/17 08:38:49;;;;;;;8.73;5.10;;;;;;;0.41;100.00;146347.56;5024683;28;20453;-55
2023/12/17 08:41:17;;;;;;;16.13;6.70;;;;;;;0.45;100.00;146357.44;5011467;28;20475;-53
2023/12/17 08:43:45;;;;;;;12.57;5.80;;;;;;;0.49;100.00;146366.06;5025635;28;20244;-55
2023/12/17 08:46:12;;;;;;;27.50;14.23;;;;;;;0.51;100.00;146372.28;5021603;28;20266;-55
2023/12/17 08:48:39;;;;;;;28.10;15.53;;;;;;;0.53;100.00;146377.19;5024802;28;20232;-56
2023/12/17 08:51:06;;;;;;;28.07;17.63;;;;;;;0.58;100.00;146388.34;5020545;28;20604;-55
2023/12/17 08:53:33;;;;;;;26.03;15.97;;;;;;;0.61;100.00;146395.75;5025594;28;20281;-56
2023/12/17 08:56:00;;;;;;;32.60;19.90;;;;;;;0.68;100.00;146413.06;5023350;28;20224;-56
2023/12/17 08:58:29;;;;;;;29.17;18.73;;;;;;;0.72;100.00;146422.97;5026177;28;20314;-55
2023/12/17 09:00:56;;;;;;;29.13;17.90;;;;;;;0.76;100.00;146430.38;5018212;28;20282;-55
2023/12/17 09:03:22;;;;;;;96.03;58.10;;;;;;;0.83;100.00;146447.72;5024203;28;20232;-54
2023/12/17 09:05:49;;;;;;;89.37;53.13;;;;;;;0.87;100.00;146458.81;5026102;28;20227;-56
2023/12/17 09:08:16;;;;;;;66.87;42.43;;;;;;;0.92;100.00;146469.97;5020613;28;20315;-55
2023/12/17 09:10:42;;;;;;;62.63;38.90;;;;;;;0.98;100.00;146483.56;5025105;28;20224;-55
2023/12/17 09:13:09;;;;;;;58.53;37.20;;;;;;;0.98;100.00;146484.81;5019400;28;20642;-55
2023/12/17 09:15:37;;;;;;;55.17;34.73;;;;;;;1.03;100.00;146497.19;5024524;28;20228;-55
2023/12/17 09:18:05;;;;;;;50.57;29.53;;;;;;;1.07;100.00;146504.56;5021998;28;20245;-55
2023/12/17 09:20:32;;;;;;;45.03;27.60;;;;;;;1.12;100.00;146516.94;5023138;28;20239;-56
2023/12/17 09:23:00;;;;;;;50.40;25.70;;;;;;;1.18;100.00;146531.78;5020666;28;20242;-55
2023/12/17 09:25:27;;;;;;;45.23;25.70;;;;;;;1.18;100.00;146533.06;5024777;28;20608;-55
2023/12/17 09:27:53;;;;;;;41.33;23.83;;;;;;;1.25;100.00;146547.91;5016524;28;20235;-56
2023/12/17 09:30:20;;;;;;;66.67;41.70;;;;;;;1.28;100.00;146555.31;5013200;28;20313;-56
2023/12/17 09:32:48;;;;;;;46.90;31.70;;;;;;;1.31;100.00;146562.75;5018216;28;20571;-56
2023/12/17 09:35:16;;;;;;;34.50;19.80;;;;;;;1.23;100.00;146544.16;5020501;28;20220;-55
2023/12/17 09:37:43;;;;;;;56.50;20.60;;;;;;;1.23;100.00;146542.94;5024022;28;20601;-57
2023/12/17 09:40:10;;;;;;;61.20;18.83;;;;;;;1.09;100.00;146509.53;5021436;28;20691;-56
2023/12/17 09:42:37;;;;;;;49.30;19.80;;;;;;;1.09;100.00;146510.78;5024414;28;20595;-56
2023/12/17 09:45:05;;;;;;;51.40;19.63;;;;;;;1.11;100.00;146514.47;5021202;28;20231;-56
2023/12/17 09:47:32;;;;;;;50.23;21.90;;;;;;;1.14;100.00;146523.16;5020402;28;20227;-56
2023/12/17 09:50:00;;;;;;;57.77;25.20;;;;;;;1.30;100.00;146561.47;4986250;28;20676;-56
2023/12/17 09:52:30;;;;;;;69.43;23.03;;;;;;;1.35;100.00;146572.66;5023786;28;20235;-57
2023/12/17 09:54:57;;;;;;;87.07;19.47;;;;;;;1.30;100.00;146560.28;5023562;28;20323;-56
2023/12/17 09:57:23;;;;;;;87.80;20.27;;;;;;;1.24;100.00;146546.63;5021818;28;20221;-55
2023/12/17 09:59:50;;;;;;;56.43;19.27;;;;;;;1.27;100.00;146552.84;5023966;28;20236;-56
2023/12/17 10:02:17;;;;;;;99.13;20.17;;;;;;;1.31;100.00;146563.97;5021804;28;20234;-55
2023/12/17 10:04:44;;;;;;;75.33;20.53;;;;;;;1.40;100.00;146583.75;5022593;28;20714;-53
2023/12/17 10:07:13;;;;;;;56.77;19.00;;;;;;;1.45;100.00;146596.13;5019061;28;20707;-54
2023/12/17 10:09:39;;;;;;;144.40;23.63;;;;;;;1.40;100.00;146583.75;5024233;28;20223;-56
2023/12/17 10:12:07;;;;;;;147.87;22.53;;;;;;;1.50;100.00;146608.50;5019458;28;20227;-55
2023/12/17 10:14:34;;;;;;;55.83;18.60;;;;;;;1.57;100.00;146624.63;5022611;28;20306;-55
2023/12/17 10:17:00;;;;;;;95.57;18.63;;;;;;;1.62;100.00;146636.94;5019499;28;20239;-56
2023/12/17 10:19:32;;;;;;;109.03;19.60;;;;;;;1.65;100.00;146643.16;5023120;28;20262;-56
2023/12/17 10:22:06;;;;;;;30.67;15.43;;;;;;;1.84;100.00;146690.22;5018966;28;20722;-54
2023/12/17 10:24:40;;;;;;;103.00;18.20;;;;;;;1.85;100.00;146691.41;5023436;28;20230;-56
2023/12/17 10:27:18;;;;;;;41.40;16.07;;;;;;;1.95;100.00;146714.97;5019844;28;20269;-56
2023/12/17 10:29:49;;;;;;;53.43;19.20;;;;;;;1.92;100.00;146710.00;5022858;28;20273;-56
2023/12/17 10:32:21;;;;;;;73.83;18.93;;;;;;;1.83;100.00;146687.72;5016654;28;20223;-56
2023/12/17 10:34:48;;;;;;;46.87;19.23;;;;;;;1.82;100.00;146684.00;5024698;28;20619;-57
2023/12/17 10:37:18;;;;;;;47.73;18.60;;;;;;;1.86;100.00;146695.16;5020333;28;20227;-56
2023/12/17 10:39:48;;;;;;;43.30;18.50;;;;;;;1.85;100.00;146692.69;5023793;28;20232;-56
2023/12/17 10:42:16;;;;;;;42.33;23.73;;;;;;;1.99;100.00;146724.88;5020909;28;20225;-53
2023/12/17 10:44:44;;;;;;;45.47;21.27;;;;;;;1.86;100.00;146695.16;5021907;28;20224;-55
2023/12/17 10:47:12;;;;;;;38.13;18.07;;;;;;;2.03;100.00;146734.78;5020699;28;20236;-56
2023/12/17 10:49:40;;;;;;;31.00;17.27;;;;;;;2.05;100.00;146740.94;5023295;28;20234;-56
2023/12/17 10:52:07;;;;;;;34.43;14.97;;;;;;;2.03;100.00;146734.78;5020630;28;20240;-53
2023/12/17 10:54:34;;;;;;;34.13;15.23;;;;;;;1.78;100.00;146675.34;5020558;28;20232;-55
2023/12/17 10:57:04;;;;;;;36.60;14.57;;;;;;;1.77;100.00;146674.09;5020533;28;20236;-55
2023/12/17 10:59:34;;;;;;;33.80;14.47;;;;;;;1.77;100.00;146674.09;5024864;28;20231;-55
2023/12/17 11:02:03;;;;;;;37.03;14.63;;;;;;;1.87;100.00;146697.63;5024296;28;20285;-56
2023/12/17 11:04:31;;;;;;;52.87;15.37;;;;;;;2.00;100.00;146727.34;5027485;28;20232;-56
2023/12/17 11:06:58;;;;;;;35.47;14.33;;;;;;;2.01;100.00;146729.81;5022317;28;20226;-56
2023/12/17 11:09:25;;;;;;;71.53;19.10;;;;;;;1.97;100.00;146721.13;5027752;28;20235;-55
2023/12/17 11:11:52;;;;;;;30.63;16.67;;;;;;;1.92;100.00;146710.00;5018706;28;20240;-55
2023/12/17 11:14:20;;;;;;;65.30;16.63;;;;;;;1.78;100.00;146675.34;5024690;28;20247;-55
2023/12/17 11:16:47;;;;;;;44.87;15.50;;;;;;;1.82;100.00;146684.00;5026915;28;20247;-56